createdAt,value
2023-12-13T00:01:47.670Z,13.50
2023-12-13T00:04:14.652Z,12.48
2023-12-13T00:06:41.203Z,14.43
2023-12-13T00:11:37.364Z,13.52
2023-12-13T00:14:05.946Z,13.00
2023-12-13T00:16:32.482Z,13.18
2023-12-13T00:18:59.029Z,16.45
2023-12-13T00:23:52.117Z,15.82
2023-12-13T00:26:19.712Z,16.05
2023-12-13T00:28:47.014Z,15.70
2023-12-13T00:31:13.975Z,16.52
2023-12-13T00:33:40.552Z,16.35
2023-12-13T00:36:08.079Z,17.25
2023-12-13T00:38:34.578Z,16.50
2023-12-13T00:41:01.414Z,16.55
2023-12-13T00:43:28.051Z,16.45
2023-12-13T00:48:21.460Z,15.73
2023-12-13T00:53:14.628Z,17.33
2023-12-13T00:58:07.720Z,14.45
2023-12-13T01:00:34.302Z,16.60
2023-12-13T01:05:27.593Z,15.13
2023-12-13T01:07:54.246Z,16.88
2023-12-13T01:12:48.043Z,15.43
2023-12-13T01:15:14.605Z,15.63
2023-12-13T01:20:10.515Z,13.98
2023-12-13T01:22:37.256Z,16.38
2023-12-13T01:27:31.665Z,17.10
2023-12-13T01:29:58.405Z,16.63
2023-12-13T01:34:51.453Z,17.08
2023-12-13T01:39:44.552Z,17.45
2023-12-13T01:42:11.035Z,16.95
2023-12-13T01:44:39.361Z,18.88
2023-12-13T01:47:06.079Z,17.98
2023-12-13T01:51:59.697Z,18.40
2023-12-13T01:54:26.582Z,17.25
2023-12-13T01:56:53.450Z,17.55
2023-12-13T01:59:20.144Z,19.70
2023-12-13T02:04:15.169Z,17.98
2023-12-13T02:06:43.222Z,19.73
2023-12-13T02:09:10.194Z,19.90
2023-12-13T02:11:37.473Z,18.70
2023-12-13T02:14:05.656Z,17.60
2023-12-13T02:16:33.881Z,17.67
2023-12-13T02:19:00.606Z,16.17
2023-12-13T02:23:56.890Z,17.10
2023-12-13T02:26:23.736Z,19.02
2023-12-13T02:28:50.578Z,18.88
2023-12-13T02:46:25.149Z,18.10
2023-12-13T02:48:51.796Z,18.38
2023-12-13T02:53:45.792Z,18.60
2023-12-13T02:56:12.325Z,18.88
2023-12-13T02:58:38.911Z,17.92
2023-12-13T03:03:32.011Z,19.85
2023-12-13T03:05:58.496Z,20.02
2023-12-13T03:08:24.968Z,19.50
2023-12-13T03:10:51.510Z,20.20
2023-12-13T03:15:44.549Z,18.58
2023-12-13T03:18:11.277Z,19.88
2023-12-13T03:23:08.414Z,19.92
2023-12-13T03:25:35.295Z,19.23
2023-12-13T03:28:01.906Z,18.83
2023-12-13T03:30:28.478Z,19.60
2023-12-13T03:35:21.533Z,20.25
2023-12-13T03:37:49.204Z,19.00
2023-12-13T03:40:16.180Z,20.42
2023-12-13T03:42:42.682Z,20.83
2023-12-13T03:45:09.589Z,20.02
2023-12-13T03:47:36.556Z,21.13
2023-12-13T03:50:03.523Z,20.48
2023-12-13T03:52:30.120Z,21.05
2023-12-13T03:54:57.048Z,21.23
2023-12-13T03:57:23.559Z,20.92
2023-12-13T03:59:50.061Z,20.00
2023-12-13T04:02:16.602Z,19.15
2023-12-13T04:04:43.332Z,22.33
2023-12-13T04:07:10.583Z,19.92
2023-12-13T04:09:37.062Z,20.75
2023-12-13T04:12:04.070Z,20.65
2023-12-13T04:14:30.642Z,20.25
2023-12-13T04:16:57.233Z,19.25
2023-12-13T04:21:50.360Z,21.10
2023-12-13T04:24:16.967Z,17.98
2023-12-13T04:29:10.073Z,18.65
2023-12-13T04:31:36.582Z,20.40
2023-12-13T04:34:03.226Z,19.55
2023-12-13T04:38:56.207Z,17.60
2023-12-13T04:41:22.731Z,18.25
2023-12-13T04:43:49.594Z,18.42
2023-12-13T04:46:16.197Z,20.17
2023-12-13T04:48:42.825Z,17.70
2023-12-13T04:51:09.416Z,19.75
2023-12-13T04:53:38.048Z,18.95
2023-12-13T04:56:04.856Z,19.45
2023-12-13T04:58:31.377Z,16.88
2023-12-13T05:00:58.409Z,18.48
2023-12-13T05:05:51.575Z,19.98
2023-12-13T05:08:18.100Z,20.38
2023-12-13T05:10:45.043Z,19.15
2023-12-13T05:13:11.774Z,17.83
2023-12-13T05:18:05.634Z,17.88
2023-12-13T05:20:32.367Z,20.70
2023-12-13T05:25:25.481Z,19.80
2023-12-13T05:27:52.168Z,18.98
2023-12-13T05:32:46.250Z,18.60
2023-12-13T05:37:39.305Z,20.00
2023-12-13T05:40:06.733Z,22.30
2023-12-13T05:42:34.663Z,21.55
2023-12-13T05:45:01.264Z,23.23
2023-12-13T05:47:30.543Z,21.17
2023-12-13T05:49:58.281Z,21.48
2023-12-13T05:52:25.103Z,23.00
2023-12-13T05:54:51.618Z,22.17
2023-12-13T05:57:18.125Z,22.60
2023-12-13T05:59:44.665Z,21.67
2023-12-13T06:02:11.203Z,24.27
2023-12-13T06:04:37.931Z,23.42
2023-12-13T06:07:04.481Z,22.05
2023-12-13T06:09:30.995Z,22.23
2023-12-13T06:11:57.539Z,22.48
2023-12-13T06:14:24.048Z,20.27
2023-12-13T06:16:50.627Z,22.42
2023-12-13T06:21:43.702Z,22.05
2023-12-13T06:38:24.147Z,22.33
2023-12-13T06:41:17.852Z,21.10
2023-12-13T06:43:53.828Z,21.50
2023-12-13T06:46:23.588Z,21.95
2023-12-13T06:49:11.420Z,22.75
2023-12-13T06:54:04.856Z,21.70
2023-12-13T06:56:37.043Z,23.00
2023-12-13T06:59:03.775Z,23.38
2023-12-13T07:03:57.164Z,19.92
2023-12-13T07:08:50.211Z,21.52
2023-12-13T07:19:14.678Z,20.55
2023-12-13T07:21:41.461Z,19.60
2023-12-13T07:26:34.588Z,19.20
2023-12-13T07:29:02.405Z,21.15
2023-12-13T07:31:43.186Z,21.30
2023-12-13T07:34:10.316Z,19.48
2023-12-13T07:36:37.815Z,20.75
2023-12-13T07:39:05.016Z,20.92
2023-12-13T08:36:16.904Z,25.90
2023-12-13T08:38:43.584Z,26.80
2023-12-13T08:41:13.010Z,28.40
2023-12-13T08:43:40.148Z,28.98
2023-12-13T08:47:22.105Z,26.77
2023-12-13T08:49:48.816Z,27.40
2023-12-13T08:58:08.296Z,29.88
2023-12-13T09:05:13.843Z,28.92
2023-12-13T09:07:48.925Z,29.58
2023-12-13T09:10:43.899Z,28.13
2023-12-13T09:13:19.717Z,30.05
2023-12-13T09:15:54.866Z,29.65
2023-12-13T09:19:32.997Z,28.75
2023-12-13T09:22:28.540Z,28.33
2023-12-13T09:33:38.459Z,27.13
2023-12-13T09:39:42.972Z,28.73
2023-12-13T09:49:37.749Z,29.02
2023-12-13T09:56:23.576Z,27.60
2023-12-13T09:59:32.692Z,26.48
2023-12-13T10:02:00.167Z,27.13
2023-12-13T10:05:19.059Z,26.63
2023-12-13T10:18:05.147Z,25.42
2023-12-13T10:20:52.614Z,24.17
2023-12-13T10:23:19.768Z,23.30
2023-12-13T10:25:49.383Z,24.02
2023-12-13T10:28:16.501Z,23.23
2023-12-13T10:30:43.503Z,24.70
2023-12-13T10:41:49.175Z,24.30
2023-12-13T10:48:23.043Z,21.75
2023-12-13T10:50:51.565Z,22.17
2023-12-13T10:53:24.332Z,20.80
2023-12-13T10:59:07.942Z,20.58
2023-12-13T11:01:35.775Z,20.83
2023-12-13T11:04:10.225Z,20.40
2023-12-13T11:06:48.596Z,20.88
2023-12-13T11:09:19.513Z,19.15
2023-12-13T11:12:10.781Z,19.90
2023-12-13T11:14:42.436Z,18.92
2023-12-13T11:17:09.254Z,19.77
2023-12-13T11:19:42.684Z,20.83
2023-12-13T11:22:12.988Z,19.33
2023-12-13T11:28:49.834Z,20.90
2023-12-13T11:31:23.744Z,18.98
2023-12-13T11:34:32.963Z,19.25
2023-12-13T11:41:18.651Z,18.15
2023-12-13T11:43:48.830Z,20.92
2023-12-13T11:46:38.049Z,18.70
2023-12-13T11:49:34.231Z,19.10
2023-12-13T11:59:22.932Z,19.80
2023-12-13T12:05:32.079Z,17.85
2023-12-13T12:08:10.281Z,19.30
2023-12-13T12:10:36.913Z,18.55
2023-12-13T12:13:04.851Z,19.40
2023-12-13T12:15:32.672Z,19.27
2023-12-13T12:18:31.645Z,19.92
2023-12-13T12:25:34.348Z,19.90
2023-12-13T12:28:01.264Z,18.75
2023-12-13T12:30:28.344Z,18.35
2023-12-13T12:32:57.040Z,18.30
2023-12-13T12:35:23.649Z,18.48
2023-12-13T12:40:17.520Z,22.48
2023-12-13T12:42:46.563Z,21.33
2023-12-13T12:45:13.340Z,19.83
2023-12-13T12:50:07.830Z,20.65
2023-12-13T12:52:34.539Z,21.00
2023-12-13T12:57:27.678Z,20.95
2023-12-13T13:02:20.934Z,19.88
2023-12-13T13:07:15.549Z,19.60
2023-12-13T13:09:42.050Z,20.10
2023-12-13T13:12:08.551Z,18.88
2023-12-13T13:14:35.144Z,20.77
2023-12-13T13:17:02.050Z,19.60
2023-12-13T13:19:28.643Z,19.52
2023-12-13T13:21:57.758Z,19.20
2023-12-13T13:24:27.130Z,21.67
2023-12-13T13:26:53.627Z,20.27
2023-12-13T13:29:20.160Z,20.25
2023-12-13T13:31:46.769Z,19.85
2023-12-13T13:36:39.718Z,20.30
2023-12-13T13:39:06.465Z,20.23
2023-12-13T13:41:32.979Z,19.73
2023-12-13T13:44:00.538Z,19.80
2023-12-13T13:46:27.146Z,21.10
2023-12-13T13:48:55.552Z,21.90
2023-12-13T13:51:22.244Z,20.63
2023-12-13T14:00:58.388Z,18.90
2023-12-13T14:03:41.397Z,20.02
2023-12-13T14:06:08.463Z,20.92
2023-12-13T14:08:40.011Z,19.38
2023-12-13T14:11:14.670Z,20.83
2023-12-13T14:13:41.413Z,19.50
2023-12-13T14:16:08.375Z,21.02
2023-12-13T14:18:35.349Z,20.42
2023-12-13T14:28:39.248Z,19.85
2023-12-13T14:31:06.461Z,22.50
2023-12-13T14:33:33.493Z,22.42
2023-12-13T14:36:00.640Z,21.17
2023-12-13T14:38:35.014Z,23.70
2023-12-13T14:41:02.098Z,21.52
2023-12-13T14:43:29.104Z,23.00
2023-12-13T14:50:59.040Z,20.38
2023-12-13T14:53:29.586Z,20.38
2023-12-13T14:56:24.875Z,20.50
2023-12-13T14:59:04.463Z,21.67
2023-12-13T15:01:56.436Z,22.50
2023-12-13T15:04:24.755Z,21.63
2023-12-13T15:06:51.681Z,21.30
2023-12-13T15:09:47.703Z,22.58
2023-12-13T15:12:35.024Z,22.48
2023-12-13T15:17:54.354Z,19.77
2023-12-13T15:18:21.323Z,21.38
2023-12-13T15:20:50.334Z,22.13
2023-12-13T15:27:07.720Z,22.58
2023-12-13T15:30:35.120Z,22.65
2023-12-13T15:33:17.788Z,20.80
2023-12-13T15:35:58.762Z,21.95
2023-12-13T15:42:10.248Z,21.52
2023-12-13T15:44:38.442Z,24.42
2023-12-13T15:47:12.113Z,26.20
2023-12-13T15:49:38.742Z,24.30
2023-12-13T15:54:46.602Z,23.47
2023-12-13T15:57:22.738Z,24.88
2023-12-13T15:59:49.397Z,24.92
2023-12-13T16:05:31.801Z,22.50
2023-12-13T16:08:24.763Z,27.55
2023-12-13T16:11:14.811Z,26.05
2023-12-13T16:14:27.906Z,23.17
2023-12-13T16:16:58.042Z,23.95
2023-12-13T16:19:25.036Z,24.40
2023-12-13T16:21:59.530Z,24.33
2023-12-13T16:24:29.049Z,23.00
2023-12-13T16:27:10.321Z,24.52
2023-12-13T16:30:02.348Z,24.60
2023-12-13T16:32:43.778Z,24.27
2023-12-13T16:35:19.489Z,25.30
2023-12-13T16:37:46.170Z,25.17
2023-12-13T16:42:40.247Z,23.95
2023-12-13T16:45:07.822Z,24.30
2023-12-13T16:47:35.089Z,24.27
2023-12-13T16:50:01.736Z,22.83
2023-12-13T16:55:06.209Z,20.77
2023-12-13T16:57:32.741Z,20.98
2023-12-13T17:02:42.817Z,19.45
2023-12-13T17:05:12.270Z,20.33
2023-12-13T17:07:38.948Z,19.48
2023-12-13T17:10:32.778Z,18.67
2023-12-13T17:12:59.376Z,17.50
2023-12-13T17:15:26.892Z,18.17
2023-12-13T17:17:53.733Z,18.77
2023-12-13T17:20:20.698Z,17.40
2023-12-13T17:22:47.554Z,17.52
2023-12-13T17:25:17.383Z,17.38
2023-12-13T17:27:44.227Z,17.45
2023-12-13T17:30:11.325Z,17.10
2023-12-13T17:32:38.182Z,17.45
2023-12-13T17:35:08.748Z,19.25
2023-12-13T17:37:35.483Z,18.50
2023-12-13T17:42:29.834Z,17.33
2023-12-13T17:44:56.993Z,18.63
2023-12-13T17:47:25.460Z,17.80
2023-12-13T17:49:55.520Z,17.38
2023-12-13T17:52:22.324Z,19.10
2023-12-13T17:59:35.443Z,15.25
2023-12-13T18:02:02.251Z,16.75
2023-12-13T18:04:34.673Z,16.73
2023-12-13T18:07:01.575Z,18.02
2023-12-13T18:11:54.508Z,18.08
2023-12-13T18:14:22.212Z,18.80
2023-12-13T18:16:48.815Z,19.42
2023-12-13T18:21:42.067Z,17.77
2023-12-13T18:26:35.075Z,16.20
2023-12-13T18:29:04.040Z,16.83
2023-12-13T18:31:30.805Z,14.85
2023-12-13T18:36:23.887Z,14.38
2023-12-13T18:38:50.400Z,15.32
2023-12-13T18:41:16.901Z,15.75
2023-12-13T18:43:43.405Z,13.68
2023-12-13T18:46:09.893Z,14.73
2023-12-13T18:48:36.592Z,14.25
2023-12-13T18:53:31.071Z,12.95
2023-12-13T18:55:58.826Z,13.63
2023-12-13T19:00:56.355Z,13.00
2023-12-13T19:03:23.335Z,12.40
2023-12-13T19:05:49.879Z,11.73
2023-12-13T19:08:16.435Z,11.27
2023-12-13T19:10:43.035Z,11.40
2023-12-13T19:13:09.559Z,12.52
2023-12-13T19:15:36.120Z,11.65
2023-12-13T19:18:03.128Z,10.35
2023-12-13T19:20:29.686Z,11.13
2023-12-13T19:22:56.289Z,10.70
2023-12-13T19:25:22.973Z,11.88
2023-12-13T19:30:20.879Z,12.18
2023-12-13T19:32:47.494Z,10.65
2023-12-13T19:37:43.533Z,10.13
2023-12-13T19:40:15.711Z,9.57
2023-12-13T19:42:45.304Z,10.43
2023-12-13T19:45:12.033Z,9.45
2023-12-13T19:50:06.083Z,8.82
2023-12-13T19:52:32.641Z,9.48
2023-12-13T19:55:04.234Z,10.18
2023-12-13T19:57:33.597Z,10.82
2023-12-13T20:00:00.312Z,10.00
2023-12-13T20:02:26.932Z,10.93
2023-12-13T20:07:19.907Z,9.32
2023-12-13T20:09:46.455Z,10.25
2023-12-13T20:12:12.957Z,10.38
2023-12-13T20:14:43.348Z,12.52
2023-12-13T20:17:09.986Z,10.98
2023-12-13T20:19:36.813Z,12.27
2023-12-13T20:22:04.259Z,12.00
2023-12-13T20:24:30.797Z,13.02
2023-12-13T20:27:00.955Z,11.65
2023-12-13T20:29:28.155Z,13.32
2023-12-13T20:31:54.923Z,12.30
2023-12-13T20:34:21.623Z,13.13
2023-12-13T20:39:14.722Z,13.18
2023-12-13T20:41:41.210Z,13.90
2023-12-13T20:44:07.908Z,13.95
2023-12-13T20:46:34.655Z,16.23
2023-12-13T20:51:27.683Z,14.23
2023-12-13T20:53:54.202Z,13.88
2023-12-13T20:56:21.864Z,13.75
2023-12-13T20:58:49.738Z,14.07
2023-12-13T21:01:16.582Z,14.95
2023-12-13T21:03:43.362Z,13.18
2023-12-13T21:08:37.441Z,14.23
2023-12-13T21:11:04.275Z,14.45
2023-12-13T21:13:30.919Z,14.13
2023-12-13T21:18:23.931Z,14.23
2023-12-13T21:23:17.149Z,14.45
2023-12-13T21:28:10.336Z,15.68
2023-12-13T21:33:04.101Z,15.60
2023-12-13T21:35:30.651Z,13.63
2023-12-13T21:37:57.268Z,15.40
2023-12-13T21:42:50.370Z,13.77
2023-12-13T21:45:16.930Z,14.07
2023-12-13T21:50:10.672Z,15.27
2023-12-13T21:52:38.777Z,13.73
2023-12-13T21:55:29.087Z,14.07
2023-12-13T22:01:43.833Z,13.32
2023-12-13T22:12:30.546Z,12.90
2023-12-13T22:15:34.679Z,11.95
2023-12-13T22:21:00.005Z,13.85
2023-12-13T22:23:57.564Z,13.65
2023-12-13T22:26:47.331Z,13.20
2023-12-13T22:33:09.026Z,13.65
2023-12-13T22:36:03.413Z,13.18
2023-12-13T22:38:54.483Z,13.90
2023-12-13T22:41:42.489Z,14.40
2023-12-13T22:44:22.344Z,12.93
2023-12-13T22:47:18.395Z,14.57
2023-12-13T22:50:00.412Z,13.38
2023-12-13T22:52:46.771Z,14.88
2023-12-13T22:55:49.545Z,12.50
2023-12-13T22:58:16.066Z,13.77
2023-12-13T23:00:42.553Z,12.80
2023-12-13T23:03:09.058Z,13.13
2023-12-13T23:05:36.414Z,14.02
2023-12-13T23:08:03.406Z,14.65
2023-12-13T23:10:30.072Z,16.10
2023-12-13T23:15:23.776Z,12.82
2023-12-13T23:17:50.405Z,14.90
2023-12-13T23:20:17.119Z,14.70
2023-12-13T23:25:10.329Z,13.82
2023-12-13T23:30:04.169Z,13.18
2023-12-13T23:32:30.850Z,14.20
2023-12-13T23:34:57.400Z,14.57
2023-12-13T23:37:23.941Z,14.13
2023-12-13T23:39:50.448Z,14.50
2023-12-13T23:42:16.951Z,14.30
2023-12-13T23:44:43.425Z,13.57
2023-12-13T23:47:10.622Z,14.68
2023-12-13T23:49:37.288Z,14.40
2023-12-13T23:54:30.234Z,14.43
2023-12-13T23:56:56.837Z,13.40
